sensor_id;sensor_type;location;lat;lon;timestamp;temperature;humidity
79489;SHT31;68949;53.176;18.088;2024-03-06T00:00:47;5.14;88.55
79489;SHT31;68949;53.176;18.088;2024-03-06T00:03:34;5.18;88.58
79489;SHT31;68949;53.176;18.088;2024-03-06T00:06:01;5.24;88.55
79489;SHT31;68949;53.176;18.088;2024-03-06T00:08:27;5.28;88.46
79489;SHT31;68949;53.176;18.088;2024-03-06T00:10:54;5.32;88.39
79489;SHT31;68949;53.176;18.088;2024-03-06T00:13:21;5.31;88.25
79489;SHT31;68949;53.176;18.088;2024-03-06T00:15:48;5.28;88.21
79489;SHT31;68949;53.176;18.088;2024-03-06T00:18:14;5.24;88.25
79489;SHT31;68949;53.176;18.088;2024-03-06T00:20:41;5.24;88.34
79489;SHT31;68949;53.176;18.088;2024-03-06T00:23:09;5.25;88.31
79489;SHT31;68949;53.176;18.088;2024-03-06T00:25:35;5.23;88.23
79489;SHT31;68949;53.176;18.088;2024-03-06T00:28:02;5.25;88.36
79489;SHT31;68949;53.176;18.088;2024-03-06T00:30:29;5.28;88.34
79489;SHT31;68949;53.176;18.088;2024-03-06T00:32:56;5.28;88.29
79489;SHT31;68949;53.176;18.088;2024-03-06T00:35:23;5.27;88.27
79489;SHT31;68949;53.176;18.088;2024-03-06T00:37:50;5.25;88.33
79489;SHT31;68949;53.176;18.088;2024-03-06T00:40:18;5.26;88.32
79489;SHT31;68949;53.176;18.088;2024-03-06T00:42:44;5.22;88.24
79489;SHT31;68949;53.176;18.088;2024-03-06T00:45:11;5.21;88.34
79489;SHT31;68949;53.176;18.088;2024-03-06T00:47:38;5.23;88.36
79489;SHT31;68949;53.176;18.088;2024-03-06T00:50:05;5.28;88.33
79489;SHT31;68949;53.176;18.088;2024-03-06T00:52:33;5.30;88.29
79489;SHT31;68949;53.176;18.088;2024-03-06T00:55:00;5.31;88.26
79489;SHT31;68949;53.176;18.088;2024-03-06T00:57:27;5.30;88.18
79489;SHT31;68949;53.176;18.088;2024-03-06T00:59:54;5.31;88.24
79489;SHT31;68949;53.176;18.088;2024-03-06T01:02:20;5.33;88.21
79489;SHT31;68949;53.176;18.088;2024-03-06T01:04:47;5.38;88.17
79489;SHT31;68949;53.176;18.088;2024-03-06T01:07:13;5.40;88.11
79489;SHT31;68949;53.176;18.088;2024-03-06T01:09:40;5.42;88.11
79489;SHT31;68949;53.176;18.088;2024-03-06T01:12:07;5.45;88.14
79489;SHT31;68949;53.176;18.088;2024-03-06T01:14:34;5.45;88.11
79489;SHT31;68949;53.176;18.088;2024-03-06T01:17:00;5.47;88.09
79489;SHT31;68949;53.176;18.088;2024-03-06T01:19:27;5.52;88.09
79489;SHT31;68949;53.176;18.088;2024-03-06T01:21:54;5.56;87.94
79489;SHT31;68949;53.176;18.088;2024-03-06T01:24:21;5.62;87.93
79489;SHT31;68949;53.176;18.088;2024-03-06T01:26:47;5.66;87.84
79489;SHT31;68949;53.176;18.088;2024-03-06T01:29:14;5.69;87.76
79489;SHT31;68949;53.176;18.088;2024-03-06T01:31:41;5.70;87.67
79489;SHT31;68949;53.176;18.088;2024-03-06T01:34:08;5.71;87.60
79489;SHT31;68949;53.176;18.088;2024-03-06T01:36:35;5.73;87.56
79489;SHT31;68949;53.176;18.088;2024-03-06T01:39:01;5.74;87.54
79489;SHT31;68949;53.176;18.088;2024-03-06T01:41:29;5.79;87.66
79489;SHT31;68949;53.176;18.088;2024-03-06T01:43:55;5.86;87.49
79489;SHT31;68949;53.176;18.088;2024-03-06T01:46:22;5.79;87.24
79489;SHT31;68949;53.176;18.088;2024-03-06T01:48:49;5.64;87.30
79489;SHT31;68949;53.176;18.088;2024-03-06T01:51:16;5.42;87.60
79489;SHT31;68949;53.176;18.088;2024-03-06T01:53:43;5.25;88.04
79489;SHT31;68949;53.176;18.088;2024-03-06T01:56:09;5.12;88.45
79489;SHT31;68949;53.176;18.088;2024-03-06T01:58:38;5.01;88.81
79489;SHT31;68949;53.176;18.088;2024-03-06T02:01:06;4.95;88.96
79489;SHT31;68949;53.176;18.088;2024-03-06T02:03:33;4.99;89.12
79489;SHT31;68949;53.176;18.088;2024-03-06T02:06:00;5.06;89.13
79489;SHT31;68949;53.176;18.088;2024-03-06T02:08:29;5.15;89.15
79489;SHT31;68949;53.176;18.088;2024-03-06T02:10:57;5.21;88.92
79489;SHT31;68949;53.176;18.088;2024-03-06T02:13:24;5.24;88.85
79489;SHT31;68949;53.176;18.088;2024-03-06T02:15:51;5.23;88.65
79489;SHT31;68949;53.176;18.088;2024-03-06T02:18:17;5.08;88.91
79489;SHT31;68949;53.176;18.088;2024-03-06T02:20:44;4.98;89.15
79489;SHT31;68949;53.176;18.088;2024-03-06T02:23:12;4.98;89.27
79489;SHT31;68949;53.176;18.088;2024-03-06T02:25:40;5.01;89.25
79489;SHT31;68949;53.176;18.088;2024-03-06T02:28:07;5.02;89.27
79489;SHT31;68949;53.176;18.088;2024-03-06T02:30:35;5.06;89.32
79489;SHT31;68949;53.176;18.088;2024-03-06T02:33:03;5.12;89.31
79489;SHT31;68949;53.176;18.088;2024-03-06T02:35:30;5.17;89.23
79489;SHT31;68949;53.176;18.088;2024-03-06T02:37:59;5.15;89.11
79489;SHT31;68949;53.176;18.088;2024-03-06T02:40:26;5.11;89.18
79489;SHT31;68949;53.176;18.088;2024-03-06T02:42:53;5.03;89.27
79489;SHT31;68949;53.176;18.088;2024-03-06T02:45:19;5.00;89.43
79489;SHT31;68949;53.176;18.088;2024-03-06T02:47:46;5.00;89.48
79489;SHT31;68949;53.176;18.088;2024-03-06T02:50:13;5.03;89.53
79489;SHT31;68949;53.176;18.088;2024-03-06T02:52:40;5.09;89.55
79489;SHT31;68949;53.176;18.088;2024-03-06T02:55:06;5.11;89.47
79489;SHT31;68949;53.176;18.088;2024-03-06T02:57:33;5.09;89.42
79489;SHT31;68949;53.176;18.088;2024-03-06T03:00:00;5.05;89.56
79489;SHT31;68949;53.176;18.088;2024-03-06T03:02:27;5.00;89.76
79489;SHT31;68949;53.176;18.088;2024-03-06T03:04:54;4.94;89.93
79489;SHT31;68949;53.176;18.088;2024-03-06T03:07:21;4.96;90.00
79489;SHT31;68949;53.176;18.088;2024-03-06T03:09:48;4.97;89.97
79489;SHT31;68949;53.176;18.088;2024-03-06T03:12:14;4.97;89.93
79489;SHT31;68949;53.176;18.088;2024-03-06T03:14:41;4.98;90.03
79489;SHT31;68949;53.176;18.088;2024-03-06T03:17:10;4.98;90.00
79489;SHT31;68949;53.176;18.088;2024-03-06T03:19:37;4.98;90.02
79489;SHT31;68949;53.176;18.088;2024-03-06T03:22:06;5.01;90.03
79489;SHT31;68949;53.176;18.088;2024-03-06T03:24:34;5.00;89.99
79489;SHT31;68949;53.176;18.088;2024-03-06T03:27:01;4.99;90.00
79489;SHT31;68949;53.176;18.088;2024-03-06T03:29:28;4.97;90.12
79489;SHT31;68949;53.176;18.088;2024-03-06T03:31:56;4.93;90.30
79489;SHT31;68949;53.176;18.088;2024-03-06T03:34:23;4.90;90.48
79489;SHT31;68949;53.176;18.088;2024-03-06T03:36:49;4.90;90.55
79489;SHT31;68949;53.176;18.088;2024-03-06T03:39:16;4.89;90.66
79489;SHT31;68949;53.176;18.088;2024-03-06T03:41:46;4.87;90.75
79489;SHT31;68949;53.176;18.088;2024-03-06T03:44:15;4.87;90.71
79489;SHT31;68949;53.176;18.088;2024-03-06T03:46:43;4.87;90.78
79489;SHT31;68949;53.176;18.088;2024-03-06T03:49:10;4.88;90.78
79489;SHT31;68949;53.176;18.088;2024-03-06T03:51:37;4.87;90.85
79489;SHT31;68949;53.176;18.088;2024-03-06T03:54:05;4.85;90.97
79489;SHT31;68949;53.176;18.088;2024-03-06T03:56:33;4.89;90.87
79489;SHT31;68949;53.176;18.088;2024-03-06T03:59:01;4.94;90.83
79489;SHT31;68949;53.176;18.088;2024-03-06T04:01:29;4.92;90.78
79489;SHT31;68949;53.176;18.088;2024-03-06T04:03:55;4.96;90.77
79489;SHT31;68949;53.176;18.088;2024-03-06T04:06:22;5.00;90.77
79489;SHT31;68949;53.176;18.088;2024-03-06T04:08:49;5.08;90.72
79489;SHT31;68949;53.176;18.088;2024-03-06T04:11:17;5.06;90.57
79489;SHT31;68949;53.176;18.088;2024-03-06T04:13:44;5.03;90.60
79489;SHT31;68949;53.176;18.088;2024-03-06T04:16:10;5.07;90.66
79489;SHT31;68949;53.176;18.088;2024-03-06T04:18:44;5.09;90.59
79489;SHT31;68949;53.176;18.088;2024-03-06T04:21:11;5.13;90.58
79489;SHT31;68949;53.176;18.088;2024-03-06T04:23:40;5.11;90.44
79489;SHT31;68949;53.176;18.088;2024-03-06T04:26:07;5.09;90.56
79489;SHT31;68949;53.176;18.088;2024-03-06T04:28:34;5.13;90.65
79489;SHT31;68949;53.176;18.088;2024-03-06T04:31:01;5.08;90.61
79489;SHT31;68949;53.176;18.088;2024-03-06T04:33:27;5.04;90.65
79489;SHT31;68949;53.176;18.088;2024-03-06T04:35:54;5.03;90.73
79489;SHT31;68949;53.176;18.088;2024-03-06T04:38:21;5.03;90.87
79489;SHT31;68949;53.176;18.088;2024-03-06T04:40:48;5.03;90.90
79489;SHT31;68949;53.176;18.088;2024-03-06T04:43:14;5.04;90.87
79489;SHT31;68949;53.176;18.088;2024-03-06T04:45:41;5.08;90.88
79489;SHT31;68949;53.176;18.088;2024-03-06T04:48:08;5.10;90.82
79489;SHT31;68949;53.176;18.088;2024-03-06T04:50:34;5.16;90.88
79489;SHT31;68949;53.176;18.088;2024-03-06T04:53:01;5.17;90.75
79489;SHT31;68949;53.176;18.088;2024-03-06T04:55:28;5.13;90.70
79489;SHT31;68949;53.176;18.088;2024-03-06T04:57:56;5.15;90.74
79489;SHT31;68949;53.176;18.088;2024-03-06T05:00:23;5.14;90.72
79489;SHT31;68949;53.176;18.088;2024-03-06T05:02:50;5.12;90.79
79489;SHT31;68949;53.176;18.088;2024-03-06T05:05:17;5.15;90.83
79489;SHT31;68949;53.176;18.088;2024-03-06T05:07:44;5.14;90.83
79489;SHT31;68949;53.176;18.088;2024-03-06T05:10:11;5.12;90.94
79489;SHT31;68949;53.176;18.088;2024-03-06T05:12:38;5.14;90.94
79489;SHT31;68949;53.176;18.088;2024-03-06T05:15:05;5.14;90.89
79489;SHT31;68949;53.176;18.088;2024-03-06T05:17:33;5.16;91.02
79489;SHT31;68949;53.176;18.088;2024-03-06T05:20:00;5.14;91.11
79489;SHT31;68949;53.176;18.088;2024-03-06T05:22:27;5.12;91.22
79489;SHT31;68949;53.176;18.088;2024-03-06T05:24:54;5.13;91.24
79489;SHT31;68949;53.176;18.088;2024-03-06T05:27:21;5.10;91.32
79489;SHT31;68949;53.176;18.088;2024-03-06T05:29:48;5.12;91.40
79489;SHT31;68949;53.176;18.088;2024-03-06T05:32:15;5.18;91.32
79489;SHT31;68949;53.176;18.088;2024-03-06T05:34:42;5.23;91.26
79489;SHT31;68949;53.176;18.088;2024-03-06T05:37:08;5.29;91.22
79489;SHT31;68949;53.176;18.088;2024-03-06T05:39:35;5.36;91.16
79489;SHT31;68949;53.176;18.088;2024-03-06T05:42:03;5.40;91.05
79489;SHT31;68949;53.176;18.088;2024-03-06T05:44:31;5.35;90.91
79489;SHT31;68949;53.176;18.088;2024-03-06T05:46:59;5.34;91.08
79489;SHT31;68949;53.176;18.088;2024-03-06T05:49:29;5.35;91.05
79489;SHT31;68949;53.176;18.088;2024-03-06T05:51:56;5.34;91.11
79489;SHT31;68949;53.176;18.088;2024-03-06T05:54:23;5.32;91.23
79489;SHT31;68949;53.176;18.088;2024-03-06T05:56:51;5.32;91.42
79489;SHT31;68949;53.176;18.088;2024-03-06T05:59:19;5.33;91.40
79489;SHT31;68949;53.176;18.088;2024-03-06T06:01:46;5.32;91.40
79489;SHT31;68949;53.176;18.088;2024-03-06T06:04:13;5.32;91.41
79489;SHT31;68949;53.176;18.088;2024-03-06T06:06:40;5.30;91.48
79489;SHT31;68949;53.176;18.088;2024-03-06T06:09:07;5.32;91.51
79489;SHT31;68949;53.176;18.088;2024-03-06T06:11:42;5.32;91.65
79489;SHT31;68949;53.176;18.088;2024-03-06T06:14:10;5.35;91.87
79489;SHT31;68949;53.176;18.088;2024-03-06T06:16:37;5.36;91.90
79489;SHT31;68949;53.176;18.088;2024-03-06T06:19:07;5.36;91.94
79489;SHT31;68949;53.176;18.088;2024-03-06T06:21:34;5.35;92.02
79489;SHT31;68949;53.176;18.088;2024-03-06T06:24:02;5.34;92.17
79489;SHT31;68949;53.176;18.088;2024-03-06T06:26:31;5.35;92.22
79489;SHT31;68949;53.176;18.088;2024-03-06T06:28:58;5.39;92.15
79489;SHT31;68949;53.176;18.088;2024-03-06T06:31:25;5.39;92.12
79489;SHT31;68949;53.176;18.088;2024-03-06T06:33:53;5.37;92.23
79489;SHT31;68949;53.176;18.088;2024-03-06T06:36:20;5.43;92.28
79489;SHT31;68949;53.176;18.088;2024-03-06T06:38:49;5.46;92.20
79489;SHT31;68949;53.176;18.088;2024-03-06T06:41:17;5.47;92.11
79489;SHT31;68949;53.176;18.088;2024-03-06T06:43:44;5.47;92.10
79489;SHT31;68949;53.176;18.088;2024-03-06T06:46:11;5.50;92.10
79489;SHT31;68949;53.176;18.088;2024-03-06T06:48:37;5.51;92.03
79489;SHT31;68949;53.176;18.088;2024-03-06T06:51:04;5.52;92.00
79489;SHT31;68949;53.176;18.088;2024-03-06T06:53:31;5.55;91.98
79489;SHT31;68949;53.176;18.088;2024-03-06T06:55:58;5.59;91.94
79489;SHT31;68949;53.176;18.088;2024-03-06T06:58:25;5.62;91.85
79489;SHT31;68949;53.176;18.088;2024-03-06T07:00:55;5.64;91.74
79489;SHT31;68949;53.176;18.088;2024-03-06T07:03:21;5.62;91.70
79489;SHT31;68949;53.176;18.088;2024-03-06T07:05:49;5.58;91.85
79489;SHT31;68949;53.176;18.088;2024-03-06T07:08:16;5.60;91.84
79489;SHT31;68949;53.176;18.088;2024-03-06T07:10:43;5.63;91.78
79489;SHT31;68949;53.176;18.088;2024-03-06T07:13:10;5.62;91.71
79489;SHT31;68949;53.176;18.088;2024-03-06T07:15:36;5.64;91.69
79489;SHT31;68949;53.176;18.088;2024-03-06T07:18:04;5.67;91.66
79489;SHT31;68949;53.176;18.088;2024-03-06T07:20:31;5.69;91.55
79489;SHT31;68949;53.176;18.088;2024-03-06T07:22:58;5.73;91.51
79489;SHT31;68949;53.176;18.088;2024-03-06T07:25:25;5.73;91.46
79489;SHT31;68949;53.176;18.088;2024-03-06T07:27:52;5.71;91.50
79489;SHT31;68949;53.176;18.088;2024-03-06T07:30:19;5.74;91.50
79489;SHT31;68949;53.176;18.088;2024-03-06T07:32:46;5.74;91.47
79489;SHT31;68949;53.176;18.088;2024-03-06T07:35:13;5.76;91.35
79489;SHT31;68949;53.176;18.088;2024-03-06T07:37:39;5.77;91.29
79489;SHT31;68949;53.176;18.088;2024-03-06T07:40:07;5.79;91.17
79489;SHT31;68949;53.176;18.088;2024-03-06T07:42:35;5.79;91.02
79489;SHT31;68949;53.176;18.088;2024-03-06T07:45:05;5.81;91.00
79489;SHT31;68949;53.176;18.088;2024-03-06T07:47:35;5.82;90.93
79489;SHT31;68949;53.176;18.088;2024-03-06T07:50:07;5.84;90.89
79489;SHT31;68949;53.176;18.088;2024-03-06T07:52:34;5.87;90.82
79489;SHT31;68949;53.176;18.088;2024-03-06T07:55:01;5.86;90.67
79489;SHT31;68949;53.176;18.088;2024-03-06T07:57:28;5.85;90.66
79489;SHT31;68949;53.176;18.088;2024-03-06T07:59:54;5.80;90.56
79489;SHT31;68949;53.176;18.088;2024-03-06T08:02:20;5.78;90.63
79489;SHT31;68949;53.176;18.088;2024-03-06T08:04:47;5.77;90.60
79489;SHT31;68949;53.176;18.088;2024-03-06T08:07:14;5.77;90.47
79489;SHT31;68949;53.176;18.088;2024-03-06T08:09:39;5.77;90.48
79489;SHT31;68949;53.176;18.088;2024-03-06T08:12:05;5.79;90.45
79489;SHT31;68949;53.176;18.088;2024-03-06T08:14:32;5.79;90.32
79489;SHT31;68949;53.176;18.088;2024-03-06T08:16:57;5.81;90.26
79489;SHT31;68949;53.176;18.088;2024-03-06T08:19:23;5.84;90.27
79489;SHT31;68949;53.176;18.088;2024-03-06T08:21:50;5.85;90.10
79489;SHT31;68949;53.176;18.088;2024-03-06T08:24:16;5.86;90.06
79489;SHT31;68949;53.176;18.088;2024-03-06T08:26:42;5.87;89.96
79489;SHT31;68949;53.176;18.088;2024-03-06T08:29:08;5.86;89.89
79489;SHT31;68949;53.176;18.088;2024-03-06T08:31:34;5.83;89.83
79489;SHT31;68949;53.176;18.088;2024-03-06T08:33:59;5.81;89.74
79489;SHT31;68949;53.176;18.088;2024-03-06T08:36:25;5.80;89.87
79489;SHT31;68949;53.176;18.088;2024-03-06T08:38:51;5.83;89.92
79489;SHT31;68949;53.176;18.088;2024-03-06T08:41:17;5.84;89.78
79489;SHT31;68949;53.176;18.088;2024-03-06T08:43:43;5.85;89.80
79489;SHT31;68949;53.176;18.088;2024-03-06T08:46:09;5.87;89.61
79489;SHT31;68949;53.176;18.088;2024-03-06T08:48:35;5.86;89.35
79489;SHT31;68949;53.176;18.088;2024-03-06T08:51:01;5.88;89.30
79489;SHT31;68949;53.176;18.088;2024-03-06T08:53:28;5.88;89.19
79489;SHT31;68949;53.176;18.088;2024-03-06T08:55:54;5.91;89.22
79489;SHT31;68949;53.176;18.088;2024-03-06T08:58:20;5.97;89.31
79489;SHT31;68949;53.176;18.088;2024-03-06T09:00:46;6.03;89.20
79489;SHT31;68949;53.176;18.088;2024-03-06T09:03:20;6.10;89.12
79489;SHT31;68949;53.176;18.088;2024-03-06T09:05:46;6.11;88.98
79489;SHT31;68949;53.176;18.088;2024-03-06T09:08:11;6.12;88.94
79489;SHT31;68949;53.176;18.088;2024-03-06T09:10:37;6.17;88.84
79489;SHT31;68949;53.176;18.088;2024-03-06T09:13:03;6.20;88.58
79489;SHT31;68949;53.176;18.088;2024-03-06T09:15:29;6.21;88.52
79489;SHT31;68949;53.176;18.088;2024-03-06T09:17:55;6.25;88.54
79489;SHT31;68949;53.176;18.088;2024-03-06T09:20:21;6.30;88.35
79489;SHT31;68949;53.176;18.088;2024-03-06T09:22:49;6.35;88.33
79489;SHT31;68949;53.176;18.088;2024-03-06T09:25:15;6.41;88.31
79489;SHT31;68949;53.176;18.088;2024-03-06T09:27:41;6.43;88.41
79489;SHT31;68949;53.176;18.088;2024-03-06T09:30:07;6.44;88.23
79489;SHT31;68949;53.176;18.088;2024-03-06T09:32:34;6.45;88.37
79489;SHT31;68949;53.176;18.088;2024-03-06T09:35:00;6.48;88.43
79489;SHT31;68949;53.176;18.088;2024-03-06T09:37:26;6.48;88.13
79489;SHT31;68949;53.176;18.088;2024-03-06T09:39:52;6.50;88.19
79489;SHT31;68949;53.176;18.088;2024-03-06T09:42:18;6.52;88.17
79489;SHT31;68949;53.176;18.088;2024-03-06T09:44:44;6.55;88.07
79489;SHT31;68949;53.176;18.088;2024-03-06T09:47:12;6.58;87.96
79489;SHT31;68949;53.176;18.088;2024-03-06T09:49:42;6.61;87.87
79489;SHT31;68949;53.176;18.088;2024-03-06T09:52:08;6.65;87.70
79489;SHT31;68949;53.176;18.088;2024-03-06T09:54:35;6.66;87.57
79489;SHT31;68949;53.176;18.088;2024-03-06T09:57:04;6.61;87.36
79489;SHT31;68949;53.176;18.088;2024-03-06T09:59:30;6.61;87.48
79489;SHT31;68949;53.176;18.088;2024-03-06T10:01:57;6.66;87.53
79489;SHT31;68949;53.176;18.088;2024-03-06T10:04:27;6.70;87.55
79489;SHT31;68949;53.176;18.088;2024-03-06T10:06:55;6.68;87.14
79489;SHT31;68949;53.176;18.088;2024-03-06T10:09:25;6.64;86.99
79489;SHT31;68949;53.176;18.088;2024-03-06T10:11:53;6.65;87.03
79489;SHT31;68949;53.176;18.088;2024-03-06T10:14:21;6.65;86.90
79489;SHT31;68949;53.176;18.088;2024-03-06T10:16:54;6.63;87.11
79489;SHT31;68949;53.176;18.088;2024-03-06T10:19:25;6.64;87.18
79489;SHT31;68949;53.176;18.088;2024-03-06T10:21:55;6.66;87.11
79489;SHT31;68949;53.176;18.088;2024-03-06T10:24:26;6.66;87.07
79489;SHT31;68949;53.176;18.088;2024-03-06T10:26:57;6.67;87.21
79489;SHT31;68949;53.176;18.088;2024-03-06T10:29:25;6.68;87.17
79489;SHT31;68949;53.176;18.088;2024-03-06T10:31:55;6.68;87.10
79489;SHT31;68949;53.176;18.088;2024-03-06T10:34:23;6.71;87.15
79489;SHT31;68949;53.176;18.088;2024-03-06T10:36:57;6.70;86.92
79489;SHT31;68949;53.176;18.088;2024-03-06T10:39:26;6.66;86.87
79489;SHT31;68949;53.176;18.088;2024-03-06T10:41:53;6.62;86.81
79489;SHT31;68949;53.176;18.088;2024-03-06T10:44:24;6.56;86.62
79489;SHT31;68949;53.176;18.088;2024-03-06T10:46:59;6.56;86.68
79489;SHT31;68949;53.176;18.088;2024-03-06T10:49:30;6.58;86.76
79489;SHT31;68949;53.176;18.088;2024-03-06T10:52:00;6.63;86.60
79489;SHT31;68949;53.176;18.088;2024-03-06T10:54:32;6.63;86.23
79489;SHT31;68949;53.176;18.088;2024-03-06T10:57:07;6.71;86.59
79489;SHT31;68949;53.176;18.088;2024-03-06T10:59:36;6.78;86.12
79489;SHT31;68949;53.176;18.088;2024-03-06T11:02:01;6.74;85.59
79489;SHT31;68949;53.176;18.088;2024-03-06T11:04:28;6.78;85.71
79489;SHT31;68949;53.176;18.088;2024-03-06T11:06:59;6.85;85.68
79489;SHT31;68949;53.176;18.088;2024-03-06T11:09:34;6.89;85.35
79489;SHT31;68949;53.176;18.088;2024-03-06T11:12:03;6.92;85.32
79489;SHT31;68949;53.176;18.088;2024-03-06T11:14:32;7.00;85.57
79489;SHT31;68949;53.176;18.088;2024-03-06T11:17:06;7.08;85.30
79489;SHT31;68949;53.176;18.088;2024-03-06T11:28:16;7.27;84.29
79489;SHT31;68949;53.176;18.088;2024-03-06T11:33:28;7.36;84.61
79489;SHT31;68949;53.176;18.088;2024-03-06T11:44:12;7.42;84.19
79489;SHT31;68949;53.176;18.088;2024-03-06T11:46:49;7.37;84.03
79489;SHT31;68949;53.176;18.088;2024-03-06T11:49:29;7.35;84.05
79489;SHT31;68949;53.176;18.088;2024-03-06T11:52:00;7.35;84.09
79489;SHT31;68949;53.176;18.088;2024-03-06T11:54:33;7.35;83.90
79489;SHT31;68949;53.176;18.088;2024-03-06T11:57:00;7.36;83.90
79489;SHT31;68949;53.176;18.088;2024-03-06T11:59:35;7.35;83.70
79489;SHT31;68949;53.176;18.088;2024-03-06T12:02:04;7.33;83.29
79489;SHT31;68949;53.176;18.088;2024-03-06T12:04:31;7.32;83.39
79489;SHT31;68949;53.176;18.088;2024-03-06T12:07:00;7.33;83.34
79489;SHT31;68949;53.176;18.088;2024-03-06T12:09:32;7.33;83.32
79489;SHT31;68949;53.176;18.088;2024-03-06T12:11:59;7.31;83.29
79489;SHT31;68949;53.176;18.088;2024-03-06T12:14:25;7.32;83.39
79489;SHT31;68949;53.176;18.088;2024-03-06T12:16:55;7.32;83.31
79489;SHT31;68949;53.176;18.088;2024-03-06T12:19:32;7.28;82.61
79489;SHT31;68949;53.176;18.088;2024-03-06T12:22:00;7.22;82.03
79489;SHT31;68949;53.176;18.088;2024-03-06T12:24:31;7.17;82.20
79489;SHT31;68949;53.176;18.088;2024-03-06T12:27:01;7.16;82.39
79489;SHT31;68949;53.176;18.088;2024-03-06T12:29:30;7.18;82.55
79489;SHT31;68949;53.176;18.088;2024-03-06T12:31:58;7.24;82.44
79489;SHT31;68949;53.176;18.088;2024-03-06T12:34:25;7.25;82.01
79489;SHT31;68949;53.176;18.088;2024-03-06T12:36:51;7.25;82.13
79489;SHT31;68949;53.176;18.088;2024-03-06T12:39:17;7.27;82.07
79489;SHT31;68949;53.176;18.088;2024-03-06T12:41:49;7.28;81.92
79489;SHT31;68949;53.176;18.088;2024-03-06T12:44:19;7.30;81.52
79489;SHT31;68949;53.176;18.088;2024-03-06T12:46:45;7.31;81.22
79489;SHT31;68949;53.176;18.088;2024-03-06T12:49:11;7.33;81.11
79489;SHT31;68949;53.176;18.088;2024-03-06T12:51:37;7.35;81.01
79489;SHT31;68949;53.176;18.088;2024-03-06T12:54:03;7.35;80.28
79489;SHT31;68949;53.176;18.088;2024-03-06T12:56:29;7.37;80.46
79489;SHT31;68949;53.176;18.088;2024-03-06T12:58:55;7.43;80.64
79489;SHT31;68949;53.176;18.088;2024-03-06T13:01:21;7.46;80.08
79489;SHT31;68949;53.176;18.088;2024-03-06T13:03:47;7.46;79.93
79489;SHT31;68949;53.176;18.088;2024-03-06T13:06:14;7.49;80.59
79489;SHT31;68949;53.176;18.088;2024-03-06T13:08:41;7.54;80.47
79489;SHT31;68949;53.176;18.088;2024-03-06T13:11:06;7.56;80.22
79489;SHT31;68949;53.176;18.088;2024-03-06T13:13:35;7.56;79.77
79489;SHT31;68949;53.176;18.088;2024-03-06T13:16:01;7.57;79.20
79489;SHT31;68949;53.176;18.088;2024-03-06T13:18:26;7.58;78.93
79489;SHT31;68949;53.176;18.088;2024-03-06T13:20:52;7.57;78.94
79489;SHT31;68949;53.176;18.088;2024-03-06T13:23:19;7.56;78.42
79489;SHT31;68949;53.176;18.088;2024-03-06T13:25:45;7.57;78.81
79489;SHT31;68949;53.176;18.088;2024-03-06T13:28:11;7.60;78.18
79489;SHT31;68949;53.176;18.088;2024-03-06T13:30:38;7.64;78.19
79489;SHT31;68949;53.176;18.088;2024-03-06T13:33:04;7.68;78.23
79489;SHT31;68949;53.176;18.088;2024-03-06T13:35:32;7.69;77.63
79489;SHT31;68949;53.176;18.088;2024-03-06T13:37:58;7.70;77.07
79489;SHT31;68949;53.176;18.088;2024-03-06T13:40:24;7.67;77.16
79489;SHT31;68949;53.176;18.088;2024-03-06T13:42:52;7.69;77.07
79489;SHT31;68949;53.176;18.088;2024-03-06T13:45:18;7.70;76.89
79489;SHT31;68949;53.176;18.088;2024-03-06T13:47:44;7.73;77.18
79489;SHT31;68949;53.176;18.088;2024-03-06T13:50:11;7.78;77.14
79489;SHT31;68949;53.176;18.088;2024-03-06T13:52:39;7.86;77.61
79489;SHT31;68949;53.176;18.088;2024-03-06T13:55:09;7.89;76.33
79489;SHT31;68949;53.176;18.088;2024-03-06T13:57:37;7.92;76.69
79489;SHT31;68949;53.176;18.088;2024-03-06T14:00:07;7.98;76.11
79489;SHT31;68949;53.176;18.088;2024-03-06T14:02:45;8.00;74.89
79489;SHT31;68949;53.176;18.088;2024-03-06T14:05:12;8.03;75.29
79489;SHT31;68949;53.176;18.088;2024-03-06T14:07:40;8.06;75.65
79489;SHT31;68949;53.176;18.088;2024-03-06T14:10:07;8.05;74.77
79489;SHT31;68949;53.176;18.088;2024-03-06T14:12:35;8.02;74.26
79489;SHT31;68949;53.176;18.088;2024-03-06T14:15:05;7.96;73.84
79489;SHT31;68949;53.176;18.088;2024-03-06T14:17:37;7.91;73.67
79489;SHT31;68949;53.176;18.088;2024-03-06T14:20:04;7.83;72.82
79489;SHT31;68949;53.176;18.088;2024-03-06T14:22:31;7.78;73.28
79489;SHT31;68949;53.176;18.088;2024-03-06T14:24:56;7.73;72.66
79489;SHT31;68949;53.176;18.088;2024-03-06T14:27:23;7.75;73.14
79489;SHT31;68949;53.176;18.088;2024-03-06T14:29:49;7.82;72.76
79489;SHT31;68949;53.176;18.088;2024-03-06T14:32:16;7.95;73.19
79489;SHT31;68949;53.176;18.088;2024-03-06T14:34:44;8.08;72.48
79489;SHT31;68949;53.176;18.088;2024-03-06T14:37:10;8.16;72.08
79489;SHT31;68949;53.176;18.088;2024-03-06T14:39:36;8.17;71.59
79489;SHT31;68949;53.176;18.088;2024-03-06T14:42:02;8.13;71.17
79489;SHT31;68949;53.176;18.088;2024-03-06T14:44:29;8.05;69.81
79489;SHT31;68949;53.176;18.088;2024-03-06T14:46:56;7.93;69.43
79489;SHT31;68949;53.176;18.088;2024-03-06T14:49:22;7.82;69.69
79489;SHT31;68949;53.176;18.088;2024-03-06T14:51:48;7.74;69.18
79489;SHT31;68949;53.176;18.088;2024-03-06T14:54:14;7.73;69.36
79489;SHT31;68949;53.176;18.088;2024-03-06T14:56:40;7.73;68.81
79489;SHT31;68949;53.176;18.088;2024-03-06T14:59:07;7.73;68.35
79489;SHT31;68949;53.176;18.088;2024-03-06T15:01:32;7.74;68.52
79489;SHT31;68949;53.176;18.088;2024-03-06T15:03:59;7.74;68.80
79489;SHT31;68949;53.176;18.088;2024-03-06T15:06:25;7.75;69.77
79489;SHT31;68949;53.176;18.088;2024-03-06T15:08:51;7.78;69.39
79489;SHT31;68949;53.176;18.088;2024-03-06T15:11:19;7.77;68.52
79489;SHT31;68949;53.176;18.088;2024-03-06T15:13:48;7.78;68.12
79489;SHT31;68949;53.176;18.088;2024-03-06T15:16:14;7.79;67.34
79489;SHT31;68949;53.176;18.088;2024-03-06T15:18:40;7.81;66.94
79489;SHT31;68949;53.176;18.088;2024-03-06T15:21:06;7.80;66.72
79489;SHT31;68949;53.176;18.088;2024-03-06T15:23:32;7.77;67.18
79489;SHT31;68949;53.176;18.088;2024-03-06T15:25:58;7.76;67.35
79489;SHT31;68949;53.176;18.088;2024-03-06T15:28:24;7.73;67.37
79489;SHT31;68949;53.176;18.088;2024-03-06T15:30:50;7.72;66.90
79489;SHT31;68949;53.176;18.088;2024-03-06T15:33:16;7.68;67.18
79489;SHT31;68949;53.176;18.088;2024-03-06T15:35:42;7.65;67.05
79489;SHT31;68949;53.176;18.088;2024-03-06T15:38:08;7.62;67.30
79489;SHT31;68949;53.176;18.088;2024-03-06T15:40:35;7.59;68.01
79489;SHT31;68949;53.176;18.088;2024-03-06T15:43:01;7.54;68.13
79489;SHT31;68949;53.176;18.088;2024-03-06T15:45:30;7.52;68.12
79489;SHT31;68949;53.176;18.088;2024-03-06T15:47:56;7.48;68.28
79489;SHT31;68949;53.176;18.088;2024-03-06T15:50:22;7.46;67.70